Time;durP1;ratioP1;P1;durP2;ratioP2;P2;SDS_P1;SDS_P2;PMS_P1;PMS_P2;Temp;Humidity;BMP_temperature;BMP_pressure;BME280_temperature;BME280_humidity;BME280_pressure;Samples;Min_cycle;Max_cycle;Signal;HPM_P1;HPM_P2
2022/01/05 00:00:00;;;;;;;;;;;5.00;99.90;;;;;;5055445;28;19962;-74
2022/01/05 00:02:27;;;;;;;;;;;5.00;99.90;;;;;;5053297;28;19965;-74
2022/01/05 00:04:55;;;;;;;;;;;5.00;99.90;;;;;;5064763;28;20418;-74
2022/01/05 00:07:22;;;;;;;;;;;5.00;99.90;;;;;;5065068;28;20571;-74
2022/01/05 00:09:49;;;;;;;;;;;5.00;99.90;;;;;;5052170;28;20322;-74
2022/01/05 00:12:15;;;;;;;;;;;5.00;99.90;;;;;;5054533;28;19924;-74
2022/01/05 00:14:42;;;;;;;;;;;5.10;99.90;;;;;;5054679;28;19931;-74
2022/01/05 00:17:09;;;;;;;;;;;5.00;99.90;;;;;;5057672;28;20019;-74
2022/01/05 00:19:36;;;;;;;;;;;5.00;99.90;;;;;;5059137;28;19935;-74
2022/01/05 00:22:04;;;;;;;;;;;5.00;99.90;;;;;;5064850;28;20019;-74
2022/01/05 00:24:30;;;;;;;;;;;5.00;99.90;;;;;;5052241;28;19924;-74
2022/01/05 00:26:57;;;;;;;;;;;5.00;99.90;;;;;;5071085;28;20015;-74
2022/01/05 00:29:24;;;;;;;;;;;5.00;99.90;;;;;;5061761;28;19931;-74
2022/01/05 00:31:50;;;;;;;;;;;5.10;99.90;;;;;;5064193;28;19939;-74
2022/01/05 00:34:17;;;;;;;;;;;5.00;99.90;;;;;;5058017;28;20028;-75
2022/01/05 00:36:46;;;;;;;;;;;5.00;99.90;;;;;;5059512;28;19924;-74
2022/01/05 00:39:13;;;;;;;;;;;5.10;99.90;;;;;;5066865;28;20402;-74
2022/01/05 00:41:40;;;;;;;;;;;5.00;99.90;;;;;;5056877;28;20478;-74
2022/01/05 00:44:07;;;;;;;;;;;5.00;99.90;;;;;;5071072;28;19935;-74
2022/01/05 00:46:35;;;;;;;;;;;5.00;99.90;;;;;;5072309;28;20221;-74
2022/01/05 00:49:03;;;;;;;;;;;5.00;99.90;;;;;;5061182;28;19940;-75
2022/01/05 00:51:29;;;;;;;;;;;5.00;99.90;;;;;;5058164;28;19928;-74
2022/01/05 00:53:56;;;;;;;;;;;5.00;99.90;;;;;;5061923;28;19931;-74
2022/01/05 00:56:25;;;;;;;;;;;5.00;99.90;;;;;;5065485;28;19924;-75
2022/01/05 00:58:52;;;;;;;;;;;4.90;99.90;;;;;;5056271;28;19924;-73
2022/01/05 01:01:19;;;;;;;;;;;4.90;99.90;;;;;;5068177;28;19967;-73
2022/01/05 01:03:48;;;;;;;;;;;4.90;99.90;;;;;;5068560;28;19925;-73
2022/01/05 01:06:16;;;;;;;;;;;4.90;99.90;;;;;;5071933;28;20290;-72
2022/01/05 01:08:42;;;;;;;;;;;4.90;99.90;;;;;;5061982;28;20548;-73
2022/01/05 01:11:09;;;;;;;;;;;4.90;99.90;;;;;;5062646;28;20154;-73
2022/01/05 01:13:36;;;;;;;;;;;5.00;99.90;;;;;;5058475;28;20364;-74
2022/01/05 01:16:03;;;;;;;;;;;5.00;99.90;;;;;;5063338;28;20490;-73
2022/01/05 01:18:30;;;;;;;;;;;4.90;99.90;;;;;;5062151;28;20321;-73
2022/01/05 01:20:56;;;;;;;;;;;5.00;99.90;;;;;;5063991;28;20299;-73
2022/01/05 01:23:27;;;;;;;;;;;5.00;99.90;;;;;;5065447;28;20012;-74
2022/01/05 01:25:54;;;;;;;;;;;5.00;99.90;;;;;;5067361;28;20366;-74
2022/01/05 01:28:21;;;;;;;;;;;5.00;99.90;;;;;;5064167;28;19920;-74
2022/01/05 01:30:48;;;;;;;;;;;5.00;99.90;;;;;;5055982;28;19931;-73
2022/01/05 01:33:15;;;;;;;;;;;5.00;99.90;;;;;;5061625;28;19921;-74
2022/01/05 01:35:42;;;;;;;;;;;5.00;99.90;;;;;;5068889;28;20458;-74
2022/01/05 01:38:09;;;;;;;;;;;5.00;99.90;;;;;;5046253;28;19929;-74
2022/01/05 01:40:36;;;;;;;;;;;5.00;99.90;;;;;;5059886;28;19999;-73
2022/01/05 01:43:03;;;;;;;;;;;5.00;99.90;;;;;;5069338;28;19927;-74
2022/01/05 01:45:30;;;;;;;;;;;5.00;99.90;;;;;;5063045;28;19920;-73
2022/01/05 01:47:56;;;;;;;;;;;5.00;99.90;;;;;;5061363;28;19978;-74
2022/01/05 01:50:23;;;;;;;;;;;5.00;99.90;;;;;;5064149;28;20012;-74
2022/01/05 01:52:50;;;;;;;;;;;5.00;99.90;;;;;;5067277;28;19927;-73
2022/01/05 01:55:20;;;;;;;;;;;5.00;99.90;;;;;;5055775;28;19925;-74
2022/01/05 01:57:47;;;;;;;;;;;5.00;99.90;;;;;;5061921;28;20400;-73
2022/01/05 02:00:14;;;;;;;;;;;5.00;99.90;;;;;;5052788;28;20439;-73
2022/01/05 02:02:42;;;;;;;;;;;5.00;99.90;;;;;;5058294;28;20334;-73
2022/01/05 02:05:09;;;;;;;;;;;5.00;99.90;;;;;;5062672;28;19970;-73
2022/01/05 02:07:36;;;;;;;;;;;4.90;99.90;;;;;;5060900;28;19920;-74
2022/01/05 02:10:10;;;;;;;;;;;4.90;99.90;;;;;;5053668;28;19927;-73
2022/01/05 02:12:36;;;;;;;;;;;4.90;99.90;;;;;;5058805;28;19921;-74
2022/01/05 02:15:04;;;;;;;;;;;4.90;99.90;;;;;;5075562;28;19932;-74
2022/01/05 02:17:54;;;;;;;;;;;4.90;99.90;;;;;;5059406;28;20600;-74
2022/01/05 02:20:25;;;;;;;;;;;4.90;99.90;;;;;;5059474;28;19927;-74
2022/01/05 02:22:54;;;;;;;;;;;4.90;99.90;;;;;;5058265;28;19936;-74
2022/01/05 02:25:23;;;;;;;;;;;4.90;99.90;;;;;;5053120;28;19990;-73
2022/01/05 02:27:51;;;;;;;;;;;4.90;99.90;;;;;;5058795;28;19950;-73
2022/01/05 02:30:19;;;;;;;;;;;4.90;99.90;;;;;;5056303;28;19927;-77
2022/01/05 02:32:46;;;;;;;;;;;4.20;99.90;;;;;;5054001;28;20103;-76
2022/01/05 02:35:13;;;;;;;;;;;3.50;99.90;;;;;;5066407;28;19950;-76
2022/01/05 02:37:41;;;;;;;;;;;3.30;99.90;;;;;;5058164;28;20290;-76
2022/01/05 02:40:09;;;;;;;;;;;3.10;99.90;;;;;;5059778;28;19934;-76
2022/01/05 02:42:35;;;;;;;;;;;3.00;99.90;;;;;;5055477;28;19927;-76
2022/01/05 02:45:02;;;;;;;;;;;2.90;99.90;;;;;;5050535;28;19963;-76
2022/01/05 02:47:29;;;;;;;;;;;2.90;99.90;;;;;;5060683;28;19924;-76
2022/01/05 02:49:57;;;;;;;;;;;2.80;99.90;;;;;;5053982;28;19921;-76
2022/01/05 02:52:23;;;;;;;;;;;2.70;99.90;;;;;;5061910;28;19926;-75
2022/01/05 02:54:53;;;;;;;;;;;2.80;99.90;;;;;;5057255;28;20027;-76
2022/01/05 02:57:20;;;;;;;;;;;2.70;99.90;;;;;;5067241;28;19960;-75
2022/01/05 02:59:49;;;;;;;;;;;2.70;99.90;;;;;;5065541;28;19931;-75
2022/01/05 03:02:16;;;;;;;;;;;2.70;99.90;;;;;;5051785;28;19927;-75
2022/01/05 03:04:46;;;;;;;;;;;2.60;99.90;;;;;;5059414;28;19928;-75
2022/01/05 03:07:14;;;;;;;;;;;2.60;99.90;;;;;;5059634;28;19924;-75
2022/01/05 03:09:40;;;;;;;;;;;2.60;99.90;;;;;;5055707;28;20333;-75
2022/01/05 03:12:08;;;;;;;;;;;2.60;99.90;;;;;;5076177;28;19920;-75
2022/01/05 03:14:34;;;;;;;;;;;2.50;99.90;;;;;;5058215;28;20432;-74
2022/01/05 03:17:01;;;;;;;;;;;2.50;99.90;;;;;;5059468;28;20356;-74
2022/01/05 03:19:28;;;;;;;;;;;2.50;99.90;;;;;;5054388;28;19920;-74
2022/01/05 03:21:58;;;;;;;;;;;2.40;99.90;;;;;;5067096;28;19974;-74
2022/01/05 03:24:24;;;;;;;;;;;2.40;99.90;;;;;;5052863;28;20266;-75
2022/01/05 03:26:51;;;;;;;;;;;2.40;99.90;;;;;;5056764;28;20342;-74
2022/01/05 03:29:20;;;;;;;;;;;2.30;99.90;;;;;;5058432;28;19930;-75
2022/01/05 03:31:47;;;;;;;;;;;2.30;99.90;;;;;;5052888;28;20473;-75
2022/01/05 03:34:18;;;;;;;;;;;2.30;99.90;;;;;;5062973;28;19929;-75
2022/01/05 03:36:45;;;;;;;;;;;2.30;99.90;;;;;;5057217;28;19921;-74
2022/01/05 03:39:12;;;;;;;;;;;2.30;99.90;;;;;;5054581;28;19921;-74
2022/01/05 03:41:38;;;;;;;;;;;2.30;99.90;;;;;;5055081;28;20470;-75
2022/01/05 03:44:11;;;;;;;;;;;2.30;99.90;;;;;;5057018;28;19974;-75
2022/01/05 03:46:38;;;;;;;;;;;2.30;99.90;;;;;;5051727;28;19940;-74
2022/01/05 03:49:04;;;;;;;;;;;2.30;99.90;;;;;;5061595;28;19920;-74
2022/01/05 03:51:31;;;;;;;;;;;2.20;99.90;;;;;;5059712;28;20023;-75
2022/01/05 03:53:58;;;;;;;;;;;2.20;99.90;;;;;;5064043;28;19920;-74
2022/01/05 03:56:25;;;;;;;;;;;2.10;99.90;;;;;;5054112;28;19956;-74
2022/01/05 03:58:51;;;;;;;;;;;2.20;99.90;;;;;;5058671;28;20011;-74
2022/01/05 04:01:18;;;;;;;;;;;2.20;99.90;;;;;;5061088;28;19934;-74
2022/01/05 04:03:45;;;;;;;;;;;2.20;99.90;;;;;;5064234;28;19973;-74
2022/01/05 04:06:14;;;;;;;;;;;2.20;99.90;;;;;;5064067;28;19924;-74
2022/01/05 04:08:41;;;;;;;;;;;2.30;99.90;;;;;;5072085;28;19963;-75
2022/01/05 04:11:07;;;;;;;;;;;2.30;99.90;;;;;;5056577;28;19991;-75
2022/01/05 04:13:34;;;;;;;;;;;2.40;99.90;;;;;;5067140;28;20022;-74
2022/01/05 04:16:01;;;;;;;;;;;2.40;99.90;;;;;;5079069;28;19920;-75
2022/01/05 04:18:28;;;;;;;;;;;2.40;99.90;;;;;;5063661;28;19943;-74
2022/01/05 04:20:54;;;;;;;;;;;2.40;99.90;;;;;;5068945;28;19920;-76
2022/01/05 04:23:21;;;;;;;;;;;2.40;99.90;;;;;;5064543;28;19927;-75
2022/01/05 04:25:47;;;;;;;;;;;2.40;99.90;;;;;;5065500;28;19927;-75
2022/01/05 04:28:16;;;;;;;;;;;2.40;99.90;;;;;;5075472;28;20506;-76
2022/01/05 04:30:43;;;;;;;;;;;2.50;99.90;;;;;;5065131;28;19927;-76
2022/01/05 04:33:09;;;;;;;;;;;2.50;99.90;;;;;;5064075;28;20015;-76
2022/01/05 04:35:56;;;;;;;;;;;2.50;99.90;;;;;;5060601;28;20375;-76
2022/01/05 04:38:23;;;;;;;;;;;2.50;99.90;;;;;;5063516;28;19920;-76
2022/01/05 04:40:49;;;;;;;;;;;2.50;99.90;;;;;;5057592;28;19946;-76
2022/01/05 04:43:16;;;;;;;;;;;2.50;99.90;;;;;;5067878;28;19920;-76
2022/01/05 04:45:43;;;;;;;;;;;2.50;99.90;;;;;;5062478;28;20383;-76
2022/01/05 04:48:09;;;;;;;;;;;2.40;99.90;;;;;;5059246;28;19947;-75
2022/01/05 04:50:36;;;;;;;;;;;2.50;99.90;;;;;;5054745;28;19920;-76
2022/01/05 04:53:03;;;;;;;;;;;2.40;99.90;;;;;;5062633;28;19920;-78
2022/01/05 04:55:30;;;;;;;;;;;2.40;99.90;;;;;;5054633;28;19931;-76
2022/01/05 04:57:56;;;;;;;;;;;2.40;99.90;;;;;;5065057;28;20007;-76
2022/01/05 05:00:23;;;;;;;;;;;2.50;99.90;;;;;;5054248;28;20486;-76
2022/01/05 05:02:50;;;;;;;;;;;2.50;99.90;;;;;;5054414;28;19956;-76
2022/01/05 05:05:17;;;;;;;;;;;2.50;99.90;;;;;;5066905;28;20345;-76
2022/01/05 05:07:43;;;;;;;;;;;2.50;99.90;;;;;;5061616;28;20405;-76
2022/01/05 05:10:12;;;;;;;;;;;2.50;99.90;;;;;;5058238;28;20007;-76
2022/01/05 05:12:39;;;;;;;;;;;2.50;99.90;;;;;;5067088;28;20007;-76
2022/01/05 05:15:06;;;;;;;;;;;2.50;99.90;;;;;;5053587;28;19922;-76
2022/01/05 05:17:33;;;;;;;;;;;2.50;99.90;;;;;;5066020;28;20011;-76
2022/01/05 05:20:00;;;;;;;;;;;2.50;99.90;;;;;;5062904;28;19924;-76
2022/01/05 05:22:26;;;;;;;;;;;2.50;99.90;;;;;;5065673;28;19921;-76
2022/01/05 05:24:56;;;;;;;;;;;2.50;99.90;;;;;;5067448;28;20007;-76
2022/01/05 05:27:25;;;;;;;;;;;2.50;99.90;;;;;;5059064;28;19956;-76
2022/01/05 05:29:52;;;;;;;;;;;2.50;99.90;;;;;;5065458;28;19946;-76
2022/01/05 05:32:22;;;;;;;;;;;2.50;99.90;;;;;;5055794;28;20007;-76
2022/01/05 05:34:51;;;;;;;;;;;2.50;99.90;;;;;;5061115;28;19995;-76
2022/01/05 05:37:17;;;;;;;;;;;2.50;99.90;;;;;;5057582;28;19964;-76
2022/01/05 05:39:44;;;;;;;;;;;2.50;99.90;;;;;;5057474;28;19928;-77
2022/01/05 05:42:11;;;;;;;;;;;2.50;99.90;;;;;;5059637;28;20651;-76
2022/01/05 05:44:38;;;;;;;;;;;2.50;99.90;;;;;;5072876;28;19926;-76
2022/01/05 05:47:06;;;;;;;;;;;2.50;99.90;;;;;;5068516;28;19940;-76
2022/01/05 05:49:39;;;;;;;;;;;2.40;99.90;;;;;;5061106;28;19932;-76
2022/01/05 05:52:06;;;;;;;;;;;2.40;99.90;;;;;;5058236;28;20332;-75
2022/01/05 05:54:33;;;;;;;;;;;2.40;99.90;;;;;;5059021;28;20613;-75
2022/01/05 05:57:00;;;;;;;;;;;2.40;99.90;;;;;;5079223;28;19959;-76
2022/01/05 05:59:26;;;;;;;;;;;2.40;99.90;;;;;;5079472;28;19929;-75
2022/01/05 06:01:53;;;;;;;;;;;2.30;99.90;;;;;;5082875;28;19921;-76
2022/01/05 06:04:20;;;;;;;;;;;2.30;99.90;;;;;;5073957;28;20015;-76
2022/01/05 06:06:48;;;;;;;;;;;2.20;99.90;;;;;;5077698;28;20386;-75
2022/01/05 06:09:14;;;;;;;;;;;2.20;99.90;;;;;;5081622;28;20374;-76
2022/01/05 06:11:47;;;;;;;;;;;2.10;99.90;;;;;;5079573;28;19919;-76
2022/01/05 06:14:22;;;;;;;;;;;2.10;99.90;;;;;;5080462;28;19960;-77
2022/01/05 06:16:51;;;;;;;;;;;2.10;99.90;;;;;;5078238;28;19986;-77
2022/01/05 06:19:18;;;;;;;;;;;2.10;99.90;;;;;;5088479;28;19927;-77
2022/01/05 06:21:45;;;;;;;;;;;2.10;99.90;;;;;;5080597;28;20878;-77
2022/01/05 06:24:11;;;;;;;;;;;2.10;99.90;;;;;;5080202;28;20386;-77
2022/01/05 06:26:38;;;;;;;;;;;2.00;99.90;;;;;;5080763;28;19956;-76
2022/01/05 06:29:05;;;;;;;;;;;1.90;99.90;;;;;;5079767;28;19936;-77
2022/01/05 06:31:32;;;;;;;;;;;1.80;99.90;;;;;;5087621;28;19934;-78
2022/01/05 06:33:59;;;;;;;;;;;1.70;99.90;;;;;;5077075;28;19952;-77
2022/01/05 06:36:25;;;;;;;;;;;1.60;99.90;;;;;;5080602;28;19959;-76
2022/01/05 06:38:55;;;;;;;;;;;1.50;99.90;;;;;;5051855;28;19927;-76
2022/01/05 06:41:22;;;;;;;;;;;1.40;99.90;;;;;;5078039;28;20007;-76
2022/01/05 06:43:48;;;;;;;;;;;1.20;99.90;;;;;;5079635;28;20546;-76
2022/01/05 06:46:19;;;;;;;;;;;1.10;99.90;;;;;;5073150;28;20019;-76
2022/01/05 06:48:46;;;;;;;;;;;1.10;99.90;;;;;;5074439;28;19928;-76
2022/01/05 06:51:13;;;;;;;;;;;1.00;99.90;;;;;;5087485;28;19920;-76
2022/01/05 06:53:39;;;;;;;;;;;0.90;99.90;;;;;;5089393;28;19920;-76
2022/01/05 06:56:06;;;;;;;;;;;0.90;99.90;;;;;;5092325;28;20384;-77
2022/01/05 06:58:36;;;;;;;;;;;0.90;99.90;;;;;;5081209;28;19962;-77
2022/01/05 07:01:03;;;;;;;;;;;0.80;99.90;;;;;;5075529;28;19974;-76
2022/01/05 07:03:30;;;;;;;;;;;0.80;99.90;;;;;;5073944;28;19959;-77
2022/01/05 07:05:57;;;;;;;;;;;0.70;99.90;;;;;;5082599;28;20003;-77
2022/01/05 07:08:23;;;;;;;;;;;0.70;99.90;;;;;;5067754;28;20436;-77
2022/01/05 07:10:53;;;;;;;;;;;0.70;99.90;;;;;;5081099;28;20032;-77
2022/01/05 07:13:20;;;;;;;;;;;0.60;99.90;;;;;;5082029;28;19999;-77
2022/01/05 07:15:47;;;;;;;;;;;0.50;99.90;;;;;;5080699;28;19926;-76
2022/01/05 07:18:14;;;;;;;;;;;0.40;99.90;;;;;;5072274;28;19921;-76
2022/01/05 07:20:41;;;;;;;;;;;0.30;99.90;;;;;;5075383;28;19942;-76
2022/01/05 07:23:09;;;;;;;;;;;0.40;99.90;;;;;;5082970;28;20002;-77
2022/01/05 07:25:38;;;;;;;;;;;0.40;99.90;;;;;;5083678;28;19920;-77
2022/01/05 07:28:05;;;;;;;;;;;0.50;99.90;;;;;;5101347;28;19920;-77
2022/01/05 07:30:32;;;;;;;;;;;0.40;99.90;;;;;;5087487;28;19963;-77
2022/01/05 07:32:59;;;;;;;;;;;0.30;99.90;;;;;;5081734;28;19920;-78
2022/01/05 07:35:25;;;;;;;;;;;0.10;99.90;;;;;;5077154;28;19979;-78
2022/01/05 07:37:52;;;;;;;;;;;-0.10;99.90;;;;;;5064666;28;19927;-78
2022/01/05 07:40:21;;;;;;;;;;;-0.30;99.90;;;;;;5079037;28;19967;-78
2022/01/05 07:42:48;;;;;;;;;;;-0.50;99.90;;;;;;5081481;28;19927;-77
2022/01/05 07:45:15;;;;;;;;;;;-0.50;99.90;;;;;;5088864;28;19924;-77
2022/01/05 07:47:42;;;;;;;;;;;-0.50;99.90;;;;;;5085547;28;19978;-78
2022/01/05 07:50:14;;;;;;;;;;;-0.40;99.90;;;;;;5075475;28;19972;-78
2022/01/05 07:52:42;;;;;;;;;;;-0.40;99.90;;;;;;5075618;28;19946;-77
2022/01/05 07:55:09;;;;;;;;;;;-0.40;99.90;;;;;;5075441;28;21554;-77
2022/01/05 07:57:35;;;;;;;;;;;-0.40;99.90;;;;;;5086041;28;19930;-78
2022/01/05 08:00:04;;;;;;;;;;;-0.50;99.90;;;;;;5078510;28;19920;-77
2022/01/05 08:02:30;;;;;;;;;;;-0.50;99.90;;;;;;5084710;28;20020;-76
2022/01/05 08:04:57;;;;;;;;;;;-0.30;99.90;;;;;;5089807;28;19924;-76
2022/01/05 08:07:24;;;;;;;;;;;-0.10;99.90;;;;;;5090015;28;20026;-77
2022/01/05 08:09:53;;;;;;;;;;;0.00;99.90;;;;;;5065563;28;19921;-77
2022/01/05 08:12:20;;;;;;;;;;;0.30;99.90;;;;;;5095053;28;20014;-77
2022/01/05 08:14:46;;;;;;;;;;;0.50;99.90;;;;;;5075575;28;19927;-77
2022/01/05 08:17:14;;;;;;;;;;;0.70;99.90;;;;;;5075009;28;19919;-77
2022/01/05 08:19:42;;;;;;;;;;;0.90;99.90;;;;;;5091705;28;19943;-77
2022/01/05 08:22:09;;;;;;;;;;;1.10;99.90;;;;;;5080967;28;20413;-78
2022/01/05 08:24:35;;;;;;;;;;;1.20;99.90;;;;;;5077861;28;20305;-77
2022/01/05 08:27:04;;;;;;;;;;;1.30;99.90;;;;;;5087378;28;19920;-78
2022/01/05 08:29:33;;;;;;;;;;;1.40;99.90;;;;;;5082004;28;20179;-78
2022/01/05 08:32:02;;;;;;;;;;;1.60;99.90;;;;;;5083917;28;19927;-78
2022/01/05 08:34:32;;;;;;;;;;;1.80;99.90;;;;;;5083751;28;19970;-78
2022/01/05 08:36:59;;;;;;;;;;;1.90;99.90;;;;;;5090618;28;19931;-78
2022/01/05 08:39:26;;;;;;;;;;;2.00;99.90;;;;;;5084811;28;19920;-78
2022/01/05 08:41:52;;;;;;;;;;;2.10;99.90;;;;;;5084310;28;19926;-78
2022/01/05 08:44:19;;;;;;;;;;;2.30;99.90;;;;;;5084618;28;19920;-78
2022/01/05 08:46:46;;;;;;;;;;;2.40;99.90;;;;;;5074778;28;19927;-78
2022/01/05 08:49:14;;;;;;;;;;;2.50;99.90;;;;;;5079177;28;19963;-78
2022/01/05 08:51:41;;;;;;;;;;;2.70;99.90;;;;;;5086015;28;20365;-78
2022/01/05 08:54:08;;;;;;;;;;;2.90;99.90;;;;;;5093682;28;20597;-80
2022/01/05 08:56:35;;;;;;;;;;;3.10;99.90;;;;;;5091628;28;20002;-80
2022/01/05 08:59:01;;;;;;;;;;;3.30;99.90;;;;;;5079228;28;20006;-81
2022/01/05 09:01:28;;;;;;;;;;;3.50;99.90;;;;;;5093887;28;19920;-80
2022/01/05 09:03:55;;;;;;;;;;;3.50;99.90;;;;;;5077877;28;20023;-80
2022/01/05 09:06:22;;;;;;;;;;;3.60;99.90;;;;;;5089870;28;19926;-80
2022/01/05 09:08:49;;;;;;;;;;;3.80;99.90;;;;;;5075407;28;20488;-80
2022/01/05 09:11:21;;;;;;;;;;;4.10;99.90;;;;;;5081092;28;20011;-80
2022/01/05 09:13:50;;;;;;;;;;;4.20;99.90;;;;;;5082603;28;19920;-80
2022/01/05 09:16:17;;;;;;;;;;;4.50;99.90;;;;;;5081117;28;19920;-78
2022/01/05 09:18:46;;;;;;;;;;;4.70;99.90;;;;;;5078624;28;20275;-81
2022/01/05 09:21:13;;;;;;;;;;;4.80;99.90;;;;;;5087775;28;20371;-79
2022/01/05 09:23:39;;;;;;;;;;;5.20;99.90;;;;;;5079597;28;19923;-78
2022/01/05 09:26:06;;;;;;;;;;;5.40;99.90;;;;;;5084412;28;20298;-78
2022/01/05 09:28:33;;;;;;;;;;;5.40;99.90;;;;;;5082002;28;20347;-79
2022/01/05 09:30:59;;;;;;;;;;;5.40;99.90;;;;;;5076188;28;19920;-79
2022/01/05 09:33:26;;;;;;;;;;;5.40;99.90;;;;;;5078015;28;19924;-79
2022/01/05 09:36:02;;;;;;;;;;;5.30;99.90;;;;;;5083270;28;20006;-79
2022/01/05 09:38:37;;;;;;;;;;;5.00;99.90;;;;;;5076222;28;19959;-79
2022/01/05 09:43:51;;;;;;;;;;;5.00;99.90;;;;;;5081721;28;20434;-79
2022/01/05 09:46:34;;;;;;;;;;;5.10;99.90;;;;;;5083892;28;20018;-79
2022/01/05 09:49:07;;;;;;;;;;;5.20;99.90;;;;;;5077660;28;19930;-79
2022/01/05 09:51:33;;;;;;;;;;;5.70;99.90;;;;;;5085845;28;20519;-79
2022/01/05 09:54:01;;;;;;;;;;;6.00;99.90;;;;;;5078440;28;19920;-79
2022/01/05 09:56:49;;;;;;;;;;;6.10;99.90;;;;;;5085155;28;20294;-79
2022/01/05 09:59:16;;;;;;;;;;;6.50;99.90;;;;;;5078899;28;19978;-79
2022/01/05 10:01:42;;;;;;;;;;;7.00;99.90;;;;;;5080523;28;19973;-79
2022/01/05 10:04:10;;;;;;;;;;;7.30;99.90;;;;;;5073055;28;19928;-79
2022/01/05 10:06:38;;;;;;;;;;;7.40;99.90;;;;;;5082504;28;20313;-79
2022/01/05 10:09:05;;;;;;;;;;;7.40;99.90;;;;;;5086495;28;20461;-79
2022/01/05 10:11:33;;;;;;;;;;;7.20;99.90;;;;;;5075620;28;19924;-79
2022/01/05 10:14:00;;;;;;;;;;;6.40;99.90;;;;;;5085091;28;19964;-78
2022/01/05 10:16:26;;;;;;;;;;;5.80;99.90;;;;;;5078561;28;20015;-78
2022/01/05 10:18:53;;;;;;;;;;;5.20;99.90;;;;;;5079197;28;19964;-78
2022/01/05 10:21:20;;;;;;;;;;;4.70;99.90;;;;;;5075296;28;19921;-79
2022/01/05 10:23:54;;;;;;;;;;;4.30;99.90;;;;;;5085750;28;19924;-79
2022/01/05 10:26:20;;;;;;;;;;;4.10;99.90;;;;;;5076460;28;20419;-79
2022/01/05 10:28:48;;;;;;;;;;;3.80;99.90;;;;;;5086788;28;20404;-81
2022/01/05 10:31:19;;;;;;;;;;;3.70;99.90;;;;;;5080077;28;19962;-78
2022/01/05 10:33:46;;;;;;;;;;;3.70;99.90;;;;;;5081663;28;20409;-79
2022/01/05 10:36:13;;;;;;;;;;;3.70;99.90;;;;;;5080181;28;20285;-78
2022/01/05 10:38:50;;;;;;;;;;;3.70;99.90;;;;;;5080104;28;19924;-78
2022/01/05 10:41:18;;;;;;;;;;;3.70;99.90;;;;;;5083918;28;20008;-79
2022/01/05 10:44:03;;;;;;;;;;;3.70;99.90;;;;;;5072930;28;19920;-79
2022/01/05 10:46:36;;;;;;;;;;;3.80;99.90;;;;;;5085425;28;19942;-79
2022/01/05 10:49:04;;;;;;;;;;;3.80;99.90;;;;;;5086964;28;20340;-79
2022/01/05 10:51:32;;;;;;;;;;;4.00;99.90;;;;;;5078930;28;19924;-79
2022/01/05 10:54:12;;;;;;;;;;;4.00;99.90;;;;;;5064083;28;19926;-79
2022/01/05 10:56:39;;;;;;;;;;;4.00;99.90;;;;;;5088898;28;19920;-79
2022/01/05 10:59:06;;;;;;;;;;;4.00;99.90;;;;;;5076340;28;19920;-79
2022/01/05 11:01:33;;;;;;;;;;;4.00;99.90;;;;;;5092529;28;19920;-79
2022/01/05 11:04:21;;;;;;;;;;;3.80;99.90;;;;;;5084277;28;19950;-79
2022/01/05 11:06:55;;;;;;;;;;;3.80;99.90;;;;;;5079559;28;19926;-78
2022/01/05 11:09:22;;;;;;;;;;;3.70;99.90;;;;;;5075084;28;20002;-79
2022/01/05 11:11:50;;;;;;;;;;;3.70;99.90;;;;;;5072767;28;20011;-79
2022/01/05 11:14:34;;;;;;;;;;;3.70;99.90;;;;;;5096006;28;19950;-79
2022/01/05 11:17:03;;;;;;;;;;;3.70;99.90;;;;;;5079855;28;19967;-80
2022/01/05 11:19:29;;;;;;;;;;;3.80;99.90;;;;;;5079512;28;19924;-79
2022/01/05 11:21:56;;;;;;;;;;;3.80;99.90;;;;;;5072535;28;20018;-79
2022/01/05 11:24:23;;;;;;;;;;;3.70;99.90;;;;;;5081930;28;19942;-79
2022/01/05 11:26:50;;;;;;;;;;;3.60;99.90;;;;;;5082110;28;19927;-80
2022/01/05 11:29:17;;;;;;;;;;;3.70;99.90;;;;;;5073680;28;20011;-79
2022/01/05 11:31:47;;;;;;;;;;;3.70;99.90;;;;;;5104208;28;19998;-80
2022/01/05 11:34:16;;;;;;;;;;;3.70;99.90;;;;;;5088371;28;20370;-80
2022/01/05 11:36:43;;;;;;;;;;;3.70;99.90;;;;;;5085284;28;20514;-80
2022/01/05 11:39:12;;;;;;;;;;;3.70;99.90;;;;;;5089164;28;19960;-79
2022/01/05 11:41:44;;;;;;;;;;;3.60;99.90;;;;;;5089373;28;19920;-80
2022/01/05 11:44:11;;;;;;;;;;;3.70;99.90;;;;;;5074081;28;19920;-80
2022/01/05 11:46:38;;;;;;;;;;;3.80;99.90;;;;;;5079398;28;19926;-78
2022/01/05 11:49:09;;;;;;;;;;;3.80;99.90;;;;;;5082018;28;19942;-78
2022/01/05 11:51:42;;;;;;;;;;;4.00;99.90;;;;;;5075063;28;20431;-79
2022/01/05 11:54:11;;;;;;;;;;;4.10;99.90;;;;;;5083335;28;20278;-78
2022/01/05 11:56:42;;;;;;;;;;;4.20;99.90;;;;;;5076323;28;19947;-78
2022/01/05 11:59:19;;;;;;;;;;;4.30;99.90;;;;;;5088877;28;19920;-78
2022/01/05 12:02:13;;;;;;;;;;;4.30;99.90;;;;;;5072175;28;19927;-78
2022/01/05 12:04:59;;;;;;;;;;;4.30;99.90;;;;;;5076615;28;19935;-79
2022/01/05 12:07:35;;;;;;;;;;;4.10;99.90;;;;;;5076319;28;19931;-79
2022/01/05 12:12:53;;;;;;;;;;;3.90;99.90;;;;;;5075828;28;19935;-79
2022/01/05 12:15:38;;;;;;;;;;;3.90;99.90;;;;;;5087019;28;19929;-79
2022/01/05 12:18:05;;;;;;;;;;;3.90;99.90;;;;;;5085746;28;19920;-79
2022/01/05 12:20:44;;;;;;;;;;;4.00;99.90;;;;;;5079032;28;20328;-78
2022/01/05 12:23:28;;;;;;;;;;;4.00;99.90;;;;;;5089946;28;20015;-79
2022/01/05 12:26:00;;;;;;;;;;;4.10;99.90;;;;;;5083264;28;20462;-79
2022/01/05 12:28:28;;;;;;;;;;;4.30;99.90;;;;;;5075060;28;19955;-79
2022/01/05 12:30:57;;;;;;;;;;;4.30;99.90;;;;;;5094530;28;19920;-79
2022/01/05 12:33:25;;;;;;;;;;;4.40;99.90;;;;;;5084509;28;19927;-79
2022/01/05 12:35:56;;;;;;;;;;;4.40;99.90;;;;;;5083804;28;19963;-79
2022/01/05 12:38:38;;;;;;;;;;;4.30;99.90;;;;;;5084695;28;19920;-79
2022/01/05 12:41:23;;;;;;;;;;;4.30;99.90;;;;;;5081085;28;19928;-79
2022/01/05 12:43:51;;;;;;;;;;;4.20;99.90;;;;;;5078392;28;19946;-79
2022/01/05 12:46:41;;;;;;;;;;;4.20;99.90;;;;;;5087669;28;20276;-79
2022/01/05 12:49:23;;;;;;;;;;;4.10;99.90;;;;;;5083047;28;20393;-78
2022/01/05 12:52:00;;;;;;;;;;;4.10;99.90;;;;;;5085059;28;19965;-79
2022/01/05 12:54:30;;;;;;;;;;;4.00;99.90;;;;;;5081251;28;19954;-79
2022/01/05 12:57:04;;;;;;;;;;;4.00;99.90;;;;;;5085571;28;19952;-78
2022/01/05 12:59:36;;;;;;;;;;;3.90;99.90;;;;;;5087868;28;19970;-78
2022/01/05 13:02:04;;;;;;;;;;;3.90;99.90;;;;;;5078347;28;19920;-78
2022/01/05 13:04:33;;;;;;;;;;;3.90;99.90;;;;;;5085878;28;19959;-78
2022/01/05 13:07:00;;;;;;;;;;;3.90;99.90;;;;;;5075974;28;19920;-78
2022/01/05 13:09:31;;;;;;;;;;;3.90;99.90;;;;;;5085341;28;19970;-78
2022/01/05 13:12:00;;;;;;;;;;;3.80;99.90;;;;;;5082839;28;19927;-79
2022/01/05 13:14:34;;;;;;;;;;;3.80;99.90;;;;;;5081462;28;19971;-78
2022/01/05 13:17:05;;;;;;;;;;;3.80;99.90;;;;;;5083605;28;20496;-79
2022/01/05 13:19:44;;;;;;;;;;;3.80;99.90;;;;;;5090054;28;19920;-78
2022/01/05 13:22:23;;;;;;;;;;;3.80;99.90;;;;;;5075884;28;19920;-78
2022/01/05 13:24:57;;;;;;;;;;;3.80;99.90;;;;;;5092775;28;20015;-78
2022/01/05 13:27:28;;;;;;;;;;;3.80;99.90;;;;;;5078797;28;19943;-79
2022/01/05 13:29:59;;;;;;;;;;;3.80;99.90;;;;;;5083864;28;19959;-78
2022/01/05 13:32:32;;;;;;;;;;;3.80;99.90;;;;;;5093759;28;19920;-78
2022/01/05 13:35:08;;;;;;;;;;;3.90;99.90;;;;;;5088010;28;19921;-78
2022/01/05 13:37:35;;;;;;;;;;;3.80;99.90;;;;;;5088831;28;19927;-78
2022/01/05 13:40:10;;;;;;;;;;;3.80;99.90;;;;;;5085244;28;19925;-78
2022/01/05 13:42:40;;;;;;;;;;;3.70;99.90;;;;;;5082862;28;19924;-78
2022/01/05 13:45:10;;;;;;;;;;;3.70;99.90;;;;;;5090000;28;20768;-78
2022/01/05 13:47:37;;;;;;;;;;;3.70;99.90;;;;;;5089508;28;19962;-78
2022/01/05 13:50:24;;;;;;;;;;;3.70;99.90;;;;;;5075396;28;19920;-78
2022/01/05 13:52:56;;;;;;;;;;;3.70;99.90;;;;;;5077273;28;20011;-78
2022/01/05 13:55:31;;;;;;;;;;;3.70;99.90;;;;;;5083041;28;19927;-78
2022/01/05 13:58:02;;;;;;;;;;;3.70;99.90;;;;;;5080720;28;19920;-78
2022/01/05 14:00:29;;;;;;;;;;;3.60;99.90;;;;;;5078829;28;20370;-78
2022/01/05 14:02:56;;;;;;;;;;;3.70;99.90;;;;;;5093096;28;19920;-78
2022/01/05 14:05:25;;;;;;;;;;;3.70;99.90;;;;;;5089519;28;20015;-78
2022/01/05 14:08:08;;;;;;;;;;;3.70;99.90;;;;;;5083152;28;19924;-78
2022/01/05 14:10:36;;;;;;;;;;;3.70;99.90;;;;;;5078709;28;20006;-78
2022/01/05 14:13:04;;;;;;;;;;;3.70;99.90;;;;;;5087501;28;19927;-78
2022/01/05 14:15:37;;;;;;;;;;;3.70;99.90;;;;;;5086756;28;19935;-78
2022/01/05 14:18:09;;;;;;;;;;;3.70;99.90;;;;;;5080674;28;19920;-79
2022/01/05 14:20:46;;;;;;;;;;;3.70;99.90;;;;;;5080486;28;20007;-78
2022/01/05 14:23:17;;;;;;;;;;;3.80;99.90;;;;;;5084081;28;20011;-78
2022/01/05 14:25:47;;;;;;;;;;;3.80;99.90;;;;;;5084752;28;19920;-78
2022/01/05 14:28:30;;;;;;;;;;;3.80;99.90;;;;;;5079578;28;19920;-78
2022/01/05 14:30:59;;;;;;;;;;;3.90;99.90;;;;;;5081721;28;19921;-79
2022/01/05 14:33:38;;;;;;;;;;;4.00;99.90;;;;;;5083947;28;20015;-78
2022/01/05 14:36:27;;;;;;;;;;;4.00;99.90;;;;;;5084430;28;19951;-78
2022/01/05 14:38:59;;;;;;;;;;;4.10;99.90;;;;;;5074897;28;20446;-79
2022/01/05 14:41:30;;;;;;;;;;;4.10;99.90;;;;;;5090328;28;19920;-78
2022/01/05 14:44:20;;;;;;;;;;;4.00;99.90;;;;;;5099076;28;19919;-79